createdAt,value
2018-06-10T00:01:58.874Z,13.97
2018-06-10T00:04:27.992Z,12.60
2018-06-10T00:06:56.148Z,13.60
2018-06-10T00:09:24.476Z,11.73
2018-06-10T00:11:52.703Z,12.73
2018-06-10T00:14:20.822Z,14.93
2018-06-10T00:16:49.020Z,12.60
2018-06-10T00:19:17.365Z,13.23
2018-06-10T00:21:45.538Z,11.60
2018-06-10T00:24:13.715Z,14.33
2018-06-10T00:26:41.924Z,12.50
2018-06-10T00:29:15.693Z,11.50
2018-06-10T00:31:43.884Z,12.77
2018-06-10T00:34:12.020Z,14.50
2018-06-10T00:36:40.230Z,14.37
2018-06-10T00:39:08.359Z,13.20
2018-06-10T00:41:37.066Z,13.30
2018-06-10T00:44:05.252Z,14.00
2018-06-10T00:46:33.269Z,16.00
2018-06-10T00:49:01.479Z,15.57
2018-06-10T00:51:29.739Z,15.90
2018-06-10T00:53:57.860Z,15.77
2018-06-10T00:56:37.599Z,16.53
2018-06-10T00:59:05.730Z,15.13
2018-06-10T01:01:33.684Z,17.70
2018-06-10T01:04:01.828Z,17.70
2018-06-10T01:06:30.601Z,16.67
2018-06-10T01:08:58.842Z,15.37
2018-06-10T01:11:27.096Z,16.23
2018-06-10T01:13:55.358Z,17.20
2018-06-10T01:16:23.296Z,16.47
2018-06-10T01:18:51.586Z,17.13
2018-06-10T01:21:20.402Z,17.70
2018-06-10T01:23:48.656Z,16.43
2018-06-10T01:26:22.268Z,16.83
2018-06-10T01:28:50.504Z,16.30
2018-06-10T01:31:18.707Z,17.10
2018-06-10T01:33:46.900Z,16.10
2018-06-10T01:36:15.051Z,16.73
2018-06-10T01:38:43.306Z,14.47
2018-06-10T01:41:11.506Z,16.60
2018-06-10T01:43:39.682Z,16.57
2018-06-10T01:46:08.037Z,17.37
2018-06-10T01:48:36.231Z,18.57
2018-06-10T01:51:04.428Z,17.60
2018-06-10T01:53:32.711Z,18.40
2018-06-10T01:56:00.937Z,17.30
2018-06-10T01:58:29.081Z,18.70
2018-06-10T02:00:57.018Z,19.87
2018-06-10T02:03:25.292Z,18.43
2018-06-10T02:05:53.677Z,17.80
2018-06-10T02:08:21.887Z,17.20
2018-06-10T02:10:50.029Z,18.27
2018-06-10T02:13:18.269Z,17.20
2018-06-10T02:15:46.536Z,19.30
2018-06-10T02:18:14.889Z,19.00
2018-06-10T02:20:43.083Z,16.97
2018-06-10T02:23:11.272Z,19.20
2018-06-10T02:25:39.472Z,19.70
2018-06-10T02:28:07.833Z,17.77
2018-06-10T02:30:36.127Z,18.03
2018-06-10T02:33:04.579Z,19.60
2018-06-10T02:35:32.743Z,19.90
2018-06-10T02:38:00.871Z,18.70
2018-06-10T02:40:29.055Z,19.17
2018-06-10T02:42:57.218Z,17.77
2018-06-10T02:45:25.791Z,18.93
2018-06-10T02:47:53.974Z,18.47
2018-06-10T02:50:22.118Z,18.60
2018-06-10T02:52:50.242Z,19.30
2018-06-10T02:55:18.392Z,19.33
2018-06-10T02:57:46.690Z,18.77
2018-06-10T03:00:14.812Z,18.03
2018-06-10T03:02:43.171Z,19.00
2018-06-10T03:05:11.296Z,19.40
2018-06-10T03:07:39.533Z,18.77
2018-06-10T03:10:07.775Z,18.70
2018-06-10T03:12:35.929Z,19.30
2018-06-10T03:15:04.107Z,18.80
2018-06-10T03:17:32.280Z,18.93
2018-06-10T03:20:00.432Z,19.30
2018-06-10T03:22:28.445Z,19.90
2018-06-10T03:24:56.620Z,19.70
2018-06-10T03:27:24.740Z,20.80
2018-06-10T03:29:53.055Z,20.70
2018-06-10T03:32:21.212Z,21.10
2018-06-10T03:34:49.608Z,20.40
2018-06-10T03:37:17.728Z,20.37
2018-06-10T03:39:45.939Z,19.67
2018-06-10T03:42:14.126Z,19.43
2018-06-10T03:44:42.357Z,20.10
2018-06-10T03:47:10.570Z,19.90
2018-06-10T03:49:38.793Z,20.40
2018-06-10T03:52:07.008Z,20.13
2018-06-10T03:54:35.710Z,19.23
2018-06-10T03:57:03.872Z,19.20
2018-06-10T03:59:32.031Z,20.90
2018-06-10T04:02:00.182Z,18.93
2018-06-10T04:04:28.511Z,19.30
2018-06-10T04:06:56.639Z,18.90
2018-06-10T04:09:24.818Z,19.43
2018-06-10T04:11:52.985Z,18.70
2018-06-10T04:14:21.186Z,19.67
2018-06-10T04:16:49.299Z,18.87
2018-06-10T04:19:17.423Z,18.97
2018-06-10T04:21:45.581Z,18.13
2018-06-10T04:24:13.724Z,21.40
2018-06-10T04:26:41.833Z,18.50
2018-06-10T04:29:09.968Z,19.60
2018-06-10T04:31:39.321Z,19.13
2018-06-10T04:34:09.101Z,18.43
2018-06-10T04:36:37.251Z,20.60
2018-06-10T04:39:06.720Z,19.77
2018-06-10T04:41:34.952Z,19.33
2018-06-10T04:44:03.307Z,20.80
2018-06-10T04:46:31.513Z,20.00
2018-06-10T04:48:59.656Z,19.00
2018-06-10T04:51:27.810Z,19.20
2018-06-10T04:53:56.106Z,19.67
2018-06-10T04:56:24.256Z,20.33
2018-06-10T04:58:52.398Z,19.83
2018-06-10T05:01:20.543Z,20.53
2018-06-10T05:03:48.687Z,21.97
2018-06-10T05:06:16.835Z,20.20
2018-06-10T05:08:45.032Z,19.07
2018-06-10T05:11:13.031Z,19.13
2018-06-10T05:13:41.262Z,19.33
2018-06-10T05:16:09.623Z,21.53
2018-06-10T05:18:37.754Z,20.00
2018-06-10T05:21:05.928Z,20.00
2018-06-10T05:23:34.124Z,18.27
2018-06-10T05:26:02.439Z,19.67
2018-06-10T05:28:30.476Z,20.50
2018-06-10T05:30:58.586Z,18.40
2018-06-10T05:33:26.759Z,19.93
2018-06-10T05:35:55.569Z,19.67
2018-06-10T05:38:23.814Z,19.20
2018-06-10T05:40:52.016Z,20.43
2018-06-10T05:43:20.298Z,19.70
2018-06-10T05:45:48.541Z,18.10
2018-06-10T05:48:16.657Z,18.17
2018-06-10T05:50:44.853Z,19.87
2018-06-10T05:53:13.075Z,17.97
2018-06-10T05:55:41.376Z,17.60
2018-06-10T05:58:09.635Z,18.23
2018-06-10T06:00:38.017Z,19.33
2018-06-10T06:03:06.381Z,17.87
2018-06-10T06:05:34.592Z,18.47
2018-06-10T06:08:02.858Z,17.00
2018-06-10T06:10:30.987Z,19.53
2018-06-10T06:12:59.227Z,19.77
2018-06-10T06:15:27.499Z,17.10
2018-06-10T06:17:55.766Z,17.67
2018-06-10T06:20:23.964Z,18.10
2018-06-10T11:25:55.894Z,8.00
2018-06-10T11:28:24.173Z,8.90
2018-06-10T11:30:52.324Z,8.87
2018-06-10T11:33:20.644Z,9.57
2018-06-10T11:35:48.852Z,8.50
2018-06-10T11:38:16.827Z,8.73
2018-06-10T11:40:44.796Z,8.53
2018-06-10T11:43:12.948Z,7.97
2018-06-10T11:45:41.184Z,6.67
2018-06-10T11:48:09.321Z,6.33
2018-06-10T11:50:37.459Z,6.97
2018-06-10T11:53:05.649Z,7.50
2018-06-10T11:55:33.875Z,7.30
2018-06-10T11:58:02.234Z,6.80
2018-06-10T12:00:30.461Z,8.03
2018-06-10T12:02:58.661Z,6.70
2018-06-10T12:05:26.977Z,7.60
2018-06-10T12:07:55.207Z,5.90
2018-06-10T12:10:23.364Z,6.60
2018-06-10T12:12:51.691Z,6.27
2018-06-10T12:15:19.824Z,6.40
2018-06-10T12:17:48.145Z,6.40
2018-06-10T12:20:16.436Z,7.17
2018-06-10T12:22:44.674Z,6.23
2018-06-10T12:25:12.798Z,6.87
2018-06-10T12:27:40.921Z,5.70
2018-06-10T12:30:09.344Z,6.13
2018-06-10T12:32:37.280Z,6.20
2018-06-10T12:35:05.686Z,5.63
2018-06-10T12:37:33.917Z,5.83
2018-06-10T12:40:02.079Z,5.33
2018-06-10T12:42:30.307Z,4.90
2018-06-10T12:44:58.451Z,4.73
2018-06-10T12:47:26.650Z,5.50
2018-06-10T12:49:55.307Z,5.47
2018-06-10T12:52:23.552Z,4.63
2018-06-10T12:54:51.685Z,5.90
2018-06-10T12:57:20.080Z,7.20
2018-06-10T12:59:48.286Z,8.47
2018-06-10T13:02:16.460Z,9.20
2018-06-10T13:04:44.594Z,9.90
2018-06-10T13:07:12.798Z,10.10
2018-06-10T13:09:40.926Z,8.83
2018-06-10T13:12:09.537Z,8.83
2018-06-10T13:14:37.780Z,8.43
2018-06-10T13:17:06.130Z,9.27
2018-06-10T13:19:34.489Z,9.13
2018-06-10T13:22:02.814Z,9.30
2018-06-10T13:24:30.986Z,9.30
2018-06-10T13:26:59.044Z,9.67
2018-06-10T13:29:27.359Z,9.50
2018-06-10T13:31:55.558Z,8.10
2018-06-10T13:34:23.872Z,8.47
2018-06-10T13:36:52.136Z,8.67
2018-06-10T13:39:20.373Z,11.17
2018-06-10T13:41:48.531Z,8.90
2018-06-10T13:44:16.981Z,9.03
2018-06-10T13:46:45.142Z,9.10
2018-06-10T13:49:13.286Z,9.80
2018-06-10T13:51:41.696Z,8.60
2018-06-10T13:54:09.910Z,9.10
2018-06-10T13:56:38.101Z,8.80
2018-06-10T13:59:06.324Z,9.30
2018-06-10T14:01:34.518Z,7.93
2018-06-10T14:04:02.764Z,11.40
2018-06-10T14:06:31.127Z,10.67
2018-06-10T14:08:59.341Z,10.00
2018-06-10T14:11:30.113Z,8.47
2018-06-10T14:13:58.320Z,9.03
2018-06-10T14:16:26.636Z,9.10
2018-06-10T14:18:54.954Z,8.80
2018-06-10T14:21:23.345Z,9.03
2018-06-10T14:23:51.817Z,9.70
2018-06-10T14:26:20.007Z,9.63
2018-06-10T14:28:48.294Z,9.20
2018-06-10T14:31:16.557Z,8.27
2018-06-10T14:33:44.737Z,8.80
2018-06-10T14:36:12.973Z,9.53
2018-06-10T14:38:41.296Z,9.20
2018-06-10T14:41:09.686Z,9.70
2018-06-10T14:43:38.019Z,9.40
2018-06-10T14:46:06.564Z,10.30
2018-06-10T14:48:35.283Z,9.70
2018-06-10T14:51:03.520Z,9.43
2018-06-10T14:53:31.696Z,9.97
2018-06-10T14:55:59.936Z,9.90
2018-06-10T14:58:28.221Z,10.57
2018-06-10T15:00:56.438Z,9.20
2018-06-10T15:03:24.683Z,7.80
2018-06-10T15:05:52.857Z,10.27
2018-06-10T15:08:21.217Z,12.80
2018-06-10T15:10:49.432Z,11.50
2018-06-10T15:13:17.568Z,8.43
2018-06-10T15:15:45.872Z,9.43
2018-06-10T15:18:14.209Z,9.13
2018-06-10T15:20:42.404Z,8.80
2018-06-10T15:23:10.742Z,9.03
2018-06-10T15:25:38.917Z,9.00
2018-06-10T15:28:07.090Z,8.07
2018-06-10T15:30:35.255Z,8.83
2018-06-10T15:33:03.424Z,9.60
2018-06-10T15:35:31.837Z,9.17
2018-06-10T15:38:00.137Z,10.03
2018-06-10T15:40:28.432Z,10.43
2018-06-10T15:42:56.663Z,11.40
2018-06-10T15:45:24.981Z,12.77
2018-06-10T15:47:53.181Z,10.93
2018-06-10T15:50:21.384Z,10.17
2018-06-10T15:52:49.565Z,10.20
2018-06-10T15:55:17.719Z,11.40
2018-06-10T15:57:45.877Z,10.87
2018-06-10T16:00:14.118Z,10.73
2018-06-10T16:02:42.326Z,11.70
2018-06-10T16:05:10.554Z,13.93
2018-06-10T16:07:39.015Z,13.70
2018-06-10T16:10:07.248Z,12.70
2018-06-10T16:12:35.444Z,14.70
2018-06-10T16:15:03.719Z,14.47
2018-06-10T16:17:31.996Z,13.93
2018-06-10T16:20:00.260Z,15.90
2018-06-10T16:22:28.468Z,13.97
2018-06-10T16:24:56.883Z,17.57
2018-06-10T16:27:25.033Z,14.23
2018-06-10T16:29:53.487Z,13.40
2018-06-10T16:32:21.789Z,13.27
2018-06-10T16:34:50.122Z,13.17
2018-06-10T16:37:18.508Z,11.97
2018-06-10T16:39:46.898Z,12.83
2018-06-10T16:42:15.412Z,13.97
2018-06-10T16:44:43.728Z,12.10
2018-06-10T16:47:12.180Z,13.50
2018-06-10T16:49:40.405Z,13.23
2018-06-10T16:52:08.640Z,12.70
2018-06-10T16:54:37.249Z,13.60
2018-06-10T16:57:05.615Z,13.07
2018-06-10T16:59:34.343Z,13.87
2018-06-10T17:02:02.753Z,13.00
2018-06-10T17:04:31.586Z,18.40
2018-06-10T17:07:00.017Z,16.33
2018-06-10T17:09:28.422Z,17.67
2018-06-10T17:11:57.561Z,20.60
2018-06-10T17:14:25.864Z,14.20
2018-06-10T17:16:54.378Z,14.20
2018-06-10T17:19:22.774Z,13.13
2018-06-10T17:21:51.472Z,15.90
2018-06-10T17:24:20.019Z,13.60
2018-06-10T17:26:48.383Z,13.60
2018-06-10T17:29:16.662Z,13.73
2018-06-10T17:31:45.071Z,14.40
2018-06-10T17:34:13.556Z,13.87
2018-06-10T17:36:41.873Z,15.50
2018-06-10T17:39:10.233Z,14.00
2018-06-10T17:41:38.895Z,14.40
2018-06-10T17:44:07.622Z,16.20
2018-06-10T17:46:36.044Z,15.63
2018-06-10T17:49:04.593Z,19.00
2018-06-10T17:51:33.414Z,17.30
2018-06-10T17:54:01.645Z,16.27
2018-06-10T17:56:29.889Z,14.57
2018-06-10T17:58:58.174Z,15.70
2018-06-10T18:01:26.363Z,14.67
2018-06-10T18:03:54.656Z,13.83
2018-06-10T18:06:23.140Z,14.43
2018-06-10T18:08:51.494Z,14.10
2018-06-10T18:11:19.676Z,14.70
2018-06-10T18:13:47.934Z,13.73
2018-06-10T18:16:16.167Z,13.83
2018-06-10T18:18:44.388Z,14.50
2018-06-10T18:21:12.570Z,14.27
2018-06-10T18:23:40.860Z,13.00
2018-06-10T18:26:09.128Z,14.50
2018-06-10T18:28:37.952Z,13.33
2018-06-10T18:31:06.180Z,14.10
2018-06-10T18:33:34.581Z,13.63
2018-06-10T18:36:02.857Z,14.20
2018-06-10T18:38:32.289Z,14.60
2018-06-10T18:41:03.231Z,14.90
2018-06-10T18:43:31.998Z,14.63
2018-06-10T18:46:00.765Z,14.30
2018-06-10T18:48:29.163Z,14.57
2018-06-10T18:50:57.632Z,12.43
2018-06-10T18:53:26.009Z,13.47
2018-06-10T18:55:54.523Z,13.20
2018-06-10T18:58:22.772Z,14.30
2018-06-10T19:00:51.123Z,15.67
2018-06-10T19:03:19.361Z,19.60
2018-06-10T19:05:47.692Z,16.07
2018-06-10T19:08:15.961Z,15.90
2018-06-10T19:10:44.209Z,16.30
2018-06-10T19:13:12.447Z,17.00
2018-06-10T19:15:40.774Z,16.80
2018-06-10T19:18:09.900Z,15.57
2018-06-10T19:20:38.583Z,16.60
2018-06-10T19:23:07.055Z,16.90
2018-06-10T19:25:35.374Z,16.67
2018-06-10T19:28:03.660Z,15.60
2018-06-10T19:30:31.948Z,14.80
2018-06-10T19:33:00.281Z,14.40
2018-06-10T19:35:29.334Z,14.97
2018-06-10T19:37:57.624Z,15.00
2018-06-10T19:40:26.019Z,14.53
2018-06-10T19:42:55.242Z,15.07
2018-06-10T19:45:23.693Z,17.77
2018-06-10T19:47:52.356Z,16.67
2018-06-10T19:50:20.975Z,15.27
2018-06-10T19:52:49.447Z,13.93
2018-06-10T19:55:18.207Z,13.90
2018-06-10T19:57:47.230Z,14.23
2018-06-10T20:00:15.668Z,13.30
2018-06-10T20:02:43.947Z,14.47
2018-06-10T20:05:12.291Z,12.57
2018-06-10T20:07:40.670Z,13.47
2018-06-10T20:10:08.970Z,14.27
2018-06-10T20:12:38.062Z,14.07
2018-06-10T20:15:07.764Z,13.77
2018-06-10T20:17:35.997Z,13.73
2018-06-10T20:20:04.517Z,13.30
2018-06-10T20:22:32.841Z,13.50
2018-06-10T20:25:01.477Z,15.37
2018-06-10T20:27:29.800Z,17.20
2018-06-10T20:29:58.202Z,19.37
2018-06-10T20:32:26.491Z,14.73
2018-06-10T20:34:54.755Z,14.73
2018-06-10T20:37:22.960Z,13.47
2018-06-10T20:39:51.404Z,13.00
2018-06-10T20:42:19.750Z,14.63
2018-06-10T20:44:48.003Z,13.67
2018-06-10T20:47:17.276Z,13.50
2018-06-10T20:49:45.501Z,14.53
2018-06-10T20:52:13.725Z,13.40
2018-06-10T20:54:41.967Z,13.67
2018-06-10T20:57:10.317Z,13.83
2018-06-10T20:59:38.353Z,18.30
2018-06-10T21:02:06.773Z,12.90
2018-06-10T21:04:37.569Z,13.37
2018-06-10T21:07:05.941Z,12.87
2018-06-10T21:09:34.144Z,13.00
2018-06-10T21:12:02.373Z,13.30
2018-06-10T21:14:30.676Z,13.00
2018-06-10T21:16:58.975Z,11.80
2018-06-10T21:19:27.568Z,11.73
2018-06-10T21:21:55.779Z,12.27
2018-06-10T21:24:23.973Z,11.53
2018-06-10T21:26:52.302Z,13.17
2018-06-10T21:29:20.506Z,11.83
2018-06-10T21:31:48.670Z,11.43
2018-06-10T21:34:17.520Z,12.03
2018-06-10T21:36:45.739Z,11.73
2018-06-10T21:39:14.607Z,10.77
2018-06-10T21:44:17.846Z,9.97
2018-06-10T21:46:46.960Z,10.80
2018-06-10T21:49:15.198Z,12.00
2018-06-10T21:51:43.402Z,11.10
2018-06-10T21:54:11.714Z,12.43
2018-06-10T21:56:39.862Z,10.33
2018-06-10T21:59:08.134Z,12.20
2018-06-10T22:01:36.549Z,11.40
2018-06-10T22:04:05.841Z,11.20
2018-06-10T22:06:33.896Z,10.10
2018-06-10T22:09:02.244Z,10.50
2018-06-10T22:11:30.626Z,10.80
2018-06-10T22:13:59.028Z,10.30
2018-06-10T22:16:27.450Z,10.43
2018-06-10T22:18:55.584Z,10.97
2018-06-10T22:21:23.764Z,10.00
2018-06-10T22:23:51.980Z,10.63
2018-06-10T22:26:20.113Z,10.07
2018-06-10T22:28:48.239Z,10.17
2018-06-10T22:31:16.596Z,11.30
2018-06-10T22:33:44.800Z,12.03
2018-06-10T22:36:13.081Z,12.27
2018-06-10T22:38:41.233Z,10.30
2018-06-10T22:41:09.828Z,11.47
2018-06-10T22:43:38.017Z,10.50
2018-06-10T22:46:06.128Z,9.77
2018-06-10T22:48:34.280Z,10.70
2018-06-10T22:51:02.434Z,10.37
2018-06-10T22:54:38.065Z,10.33
2018-06-10T22:57:06.801Z,10.90
2018-06-10T22:59:35.089Z,10.40
2018-06-10T23:02:03.610Z,10.00
2018-06-10T23:04:31.978Z,10.07
2018-06-10T23:07:00.296Z,11.23
2018-06-10T23:09:28.470Z,10.73
2018-06-10T23:11:56.706Z,10.10
2018-06-10T23:14:24.862Z,10.47
2018-06-10T23:16:53.271Z,10.47
2018-06-10T23:19:21.402Z,11.20
2018-06-10T23:21:49.639Z,9.47
2018-06-10T23:24:17.780Z,9.60
2018-06-10T23:26:45.964Z,9.77
2018-06-10T23:29:14.246Z,9.67
2018-06-10T23:31:42.424Z,9.90
2018-06-10T23:34:10.623Z,10.30
2018-06-10T23:36:39.246Z,11.00
2018-06-10T23:39:07.818Z,10.63
2018-06-10T23:41:36.113Z,10.70
2018-06-10T23:44:04.388Z,9.10
2018-06-10T23:46:32.566Z,10.93
2018-06-10T23:49:00.671Z,10.80
2018-06-10T23:51:29.530Z,10.70
2018-06-10T23:53:58.589Z,11.90
2018-06-10T23:56:27.056Z,12.27
2018-06-10T23:58:55.800Z,10.50
